sensor_id;sensor_type;location;lat;lon;timestamp;P1;durP1;ratioP1;P2;durP2;ratioP2
25509;SDS011;13413;52.336;21.200;2022-12-07T00:01:07;83.30;;;47.00;;
25509;SDS011;13413;52.336;21.200;2022-12-07T00:14:50;92.60;;;52.60;;
25509;SDS011;13413;52.336;21.200;2022-12-07T00:18:10;78.30;;;45.50;;
25509;SDS011;13413;52.336;21.200;2022-12-07T00:21:30;78.50;;;45.80;;
25509;SDS011;13413;52.336;21.200;2022-12-07T00:25:04;74.80;;;45.00;;
25509;SDS011;13413;52.336;21.200;2022-12-07T00:44:21;62.80;;;36.80;;
25509;SDS011;13413;52.336;21.200;2022-12-07T00:47:40;56.20;;;34.90;;
25509;SDS011;13413;52.336;21.200;2022-12-07T00:51:01;59.30;;;37.50;;
25509;SDS011;13413;52.336;21.200;2022-12-07T00:54:36;68.50;;;41.40;;
25509;SDS011;13413;52.336;21.200;2022-12-07T01:01:30;57.50;;;35.30;;
25509;SDS011;13413;52.336;21.200;2022-12-07T01:05:06;54.30;;;31.40;;
25509;SDS011;13413;52.336;21.200;2022-12-07T01:08:39;60.20;;;34.00;;
25509;SDS011;13413;52.336;21.200;2022-12-07T01:15:39;58.40;;;32.20;;
25509;SDS011;13413;52.336;21.200;2022-12-07T01:25:02;50.40;;;30.00;;
25509;SDS011;13413;52.336;21.200;2022-12-07T01:28:24;56.90;;;33.50;;
25509;SDS011;13413;52.336;21.200;2022-12-07T01:31:49;47.00;;;27.60;;
25509;SDS011;13413;52.336;21.200;2022-12-07T01:44:29;50.40;;;30.30;;
25509;SDS011;13413;52.336;21.200;2022-12-07T01:47:49;59.80;;;33.90;;
25509;SDS011;13413;52.336;21.200;2022-12-07T01:51:13;47.90;;;30.50;;
25509;SDS011;13413;52.336;21.200;2022-12-07T01:54:47;58.70;;;35.10;;
25509;SDS011;13413;52.336;21.200;2022-12-07T01:58:21;54.50;;;33.40;;
25509;SDS011;13413;52.336;21.200;2022-12-07T02:01:41;55.80;;;34.00;;
25509;SDS011;13413;52.336;21.200;2022-12-07T02:05:15;54.90;;;33.50;;
25509;SDS011;13413;52.336;21.200;2022-12-07T02:14:37;63.50;;;36.40;;
25509;SDS011;13413;52.336;21.200;2022-12-07T02:17:58;62.30;;;36.00;;
25509;SDS011;13413;52.336;21.200;2022-12-07T02:21:26;59.50;;;35.00;;
25509;SDS011;13413;52.336;21.200;2022-12-07T02:24:54;62.30;;;35.30;;
25509;SDS011;13413;52.336;21.200;2022-12-07T02:28:24;55.10;;;34.10;;
25509;SDS011;13413;52.336;21.200;2022-12-07T02:31:49;60.60;;;36.20;;
25509;SDS011;13413;52.336;21.200;2022-12-07T02:35:28;60.60;;;36.60;;
25509;SDS011;13413;52.336;21.200;2022-12-07T02:39:06;55.00;;;33.30;;
25509;SDS011;13413;52.336;21.200;2022-12-07T02:42:38;58.10;;;33.50;;
25509;SDS011;13413;52.336;21.200;2022-12-07T02:46:12;58.80;;;34.20;;
25509;SDS011;13413;52.336;21.200;2022-12-07T02:49:57;57.70;;;32.00;;
25509;SDS011;13413;52.336;21.200;2022-12-07T02:53:33;53.70;;;30.20;;
25509;SDS011;13413;52.336;21.200;2022-12-07T02:56:55;56.60;;;30.80;;
25509;SDS011;13413;52.336;21.200;2022-12-07T03:05:05;47.20;;;27.50;;
25509;SDS011;13413;52.336;21.200;2022-12-07T03:08:41;40.60;;;25.80;;
25509;SDS011;13413;52.336;21.200;2022-12-07T03:12:12;38.30;;;23.50;;
25509;SDS011;13413;52.336;21.200;2022-12-07T03:15:35;35.70;;;21.40;;
25509;SDS011;13413;52.336;21.200;2022-12-07T03:19:08;33.80;;;20.60;;
25509;SDS011;13413;52.336;21.200;2022-12-07T03:22:30;32.80;;;21.80;;
25509;SDS011;13413;52.336;21.200;2022-12-07T03:25:55;30.70;;;19.00;;
25509;SDS011;13413;52.336;21.200;2022-12-07T03:29:19;28.40;;;19.70;;
25509;SDS011;13413;52.336;21.200;2022-12-07T03:32:41;34.30;;;21.70;;
25509;SDS011;13413;52.336;21.200;2022-12-07T03:36:06;33.90;;;18.30;;
25509;SDS011;13413;52.336;21.200;2022-12-07T03:39:44;27.30;;;18.00;;
25509;SDS011;13413;52.336;21.200;2022-12-07T03:43:08;27.60;;;18.50;;
25509;SDS011;13413;52.336;21.200;2022-12-07T03:46:29;29.20;;;18.70;;
25509;SDS011;13413;52.336;21.200;2022-12-07T03:50:13;30.00;;;19.90;;
25509;SDS011;13413;52.336;21.200;2022-12-07T03:53:39;29.80;;;20.40;;
25509;SDS011;13413;52.336;21.200;2022-12-07T03:57:04;27.80;;;19.10;;
25509;SDS011;13413;52.336;21.200;2022-12-07T04:00:31;32.50;;;19.90;;
25509;SDS011;13413;52.336;21.200;2022-12-07T04:04:04;31.50;;;20.40;;
25509;SDS011;13413;52.336;21.200;2022-12-07T04:10:50;39.60;;;24.10;;
25509;SDS011;13413;52.336;21.200;2022-12-07T04:14:23;28.70;;;19.60;;
25509;SDS011;13413;52.336;21.200;2022-12-07T04:17:42;26.00;;;18.50;;
25509;SDS011;13413;52.336;21.200;2022-12-07T04:21:01;28.20;;;18.70;;
25509;SDS011;13413;52.336;21.200;2022-12-07T04:24:22;26.00;;;17.00;;
25509;SDS011;13413;52.336;21.200;2022-12-07T04:27:43;27.80;;;18.10;;
25509;SDS011;13413;52.336;21.200;2022-12-07T04:31:02;23.00;;;16.70;;
25509;SDS011;13413;52.336;21.200;2022-12-07T04:34:22;24.30;;;16.30;;
25509;SDS011;13413;52.336;21.200;2022-12-07T04:37:40;23.40;;;15.60;;
25509;SDS011;13413;52.336;21.200;2022-12-07T04:41:05;26.00;;;17.90;;
25509;SDS011;13413;52.336;21.200;2022-12-07T04:44:25;26.70;;;17.40;;
25509;SDS011;13413;52.336;21.200;2022-12-07T04:47:45;27.40;;;17.80;;
25509;SDS011;13413;52.336;21.200;2022-12-07T04:51:05;24.40;;;17.70;;
25509;SDS011;13413;52.336;21.200;2022-12-07T04:54:25;24.90;;;17.20;;
25509;SDS011;13413;52.336;21.200;2022-12-07T04:57:45;27.90;;;18.50;;
25509;SDS011;13413;52.336;21.200;2022-12-07T05:01:04;26.30;;;18.00;;
25509;SDS011;13413;52.336;21.200;2022-12-07T05:04:23;32.40;;;19.60;;
25509;SDS011;13413;52.336;21.200;2022-12-07T05:07:42;21.90;;;9.30;;
25509;SDS011;13413;52.336;21.200;2022-12-07T05:20:30;25.00;;;17.50;;
25509;SDS011;13413;52.336;21.200;2022-12-07T05:23:50;24.70;;;17.70;;
25509;SDS011;13413;52.336;21.200;2022-12-07T05:27:08;26.70;;;17.10;;
25509;SDS011;13413;52.336;21.200;2022-12-07T05:30:28;29.50;;;20.60;;
25509;SDS011;13413;52.336;21.200;2022-12-07T05:33:47;26.60;;;17.90;;
25509;SDS011;13413;52.336;21.200;2022-12-07T05:37:06;29.00;;;18.20;;
25509;SDS011;13413;52.336;21.200;2022-12-07T05:40:25;29.10;;;18.70;;
25509;SDS011;13413;52.336;21.200;2022-12-07T05:43:43;32.20;;;17.80;;
25509;SDS011;13413;52.336;21.200;2022-12-07T05:47:16;31.40;;;19.50;;
25509;SDS011;13413;52.336;21.200;2022-12-07T05:50:35;28.70;;;18.00;;
25509;SDS011;13413;52.336;21.200;2022-12-07T05:53:54;27.70;;;18.40;;
25509;SDS011;13413;52.336;21.200;2022-12-07T05:57:14;27.10;;;18.20;;
25509;SDS011;13413;52.336;21.200;2022-12-07T06:00:33;26.10;;;17.40;;
25509;SDS011;13413;52.336;21.200;2022-12-07T06:03:51;24.30;;;16.40;;
25509;SDS011;13413;52.336;21.200;2022-12-07T06:07:11;24.50;;;16.80;;
25509;SDS011;13413;52.336;21.200;2022-12-07T06:10:32;24.60;;;17.10;;
25509;SDS011;13413;52.336;21.200;2022-12-07T06:13:50;25.70;;;16.00;;
25509;SDS011;13413;52.336;21.200;2022-12-07T06:17:09;23.80;;;17.80;;
25509;SDS011;13413;52.336;21.200;2022-12-07T06:20:30;21.30;;;15.50;;
25509;SDS011;13413;52.336;21.200;2022-12-07T06:23:50;24.60;;;16.00;;
25509;SDS011;13413;52.336;21.200;2022-12-07T06:27:09;24.30;;;16.20;;
25509;SDS011;13413;52.336;21.200;2022-12-07T06:30:30;27.00;;;16.10;;
25509;SDS011;13413;52.336;21.200;2022-12-07T06:33:50;31.00;;;18.40;;
25509;SDS011;13413;52.336;21.200;2022-12-07T06:37:14;26.70;;;16.50;;
25509;SDS011;13413;52.336;21.200;2022-12-07T06:40:33;27.40;;;17.90;;
25509;SDS011;13413;52.336;21.200;2022-12-07T06:43:51;22.10;;;16.40;;
25509;SDS011;13413;52.336;21.200;2022-12-07T06:47:12;22.00;;;15.00;;
25509;SDS011;13413;52.336;21.200;2022-12-07T06:50:31;21.70;;;15.70;;
25509;SDS011;13413;52.336;21.200;2022-12-07T06:53:51;21.30;;;15.80;;
25509;SDS011;13413;52.336;21.200;2022-12-07T06:57:11;25.00;;;16.20;;
25509;SDS011;13413;52.336;21.200;2022-12-07T07:00:30;21.30;;;14.70;;
25509;SDS011;13413;52.336;21.200;2022-12-07T07:03:51;24.60;;;15.00;;
25509;SDS011;13413;52.336;21.200;2022-12-07T07:07:10;22.60;;;14.90;;
25509;SDS011;13413;52.336;21.200;2022-12-07T07:10:29;19.80;;;14.10;;
25509;SDS011;13413;52.336;21.200;2022-12-07T07:13:48;22.10;;;14.20;;
25509;SDS011;13413;52.336;21.200;2022-12-07T07:17:09;22.20;;;13.70;;
25509;SDS011;13413;52.336;21.200;2022-12-07T07:20:28;19.30;;;12.70;;
25509;SDS011;13413;52.336;21.200;2022-12-07T07:23:47;21.50;;;13.70;;
25509;SDS011;13413;52.336;21.200;2022-12-07T07:27:05;21.70;;;14.90;;
25509;SDS011;13413;52.336;21.200;2022-12-07T07:43:52;27.20;;;19.80;;
25509;SDS011;13413;52.336;21.200;2022-12-07T07:47:12;25.70;;;18.20;;
25509;SDS011;13413;52.336;21.200;2022-12-07T07:50:33;27.30;;;19.30;;
25509;SDS011;13413;52.336;21.200;2022-12-07T07:53:52;32.70;;;20.10;;
25509;SDS011;13413;52.336;21.200;2022-12-07T07:57:13;40.60;;;23.20;;
25509;SDS011;13413;52.336;21.200;2022-12-07T08:00:34;34.40;;;21.50;;
25509;SDS011;13413;52.336;21.200;2022-12-07T08:03:53;39.40;;;23.70;;
25509;SDS011;13413;52.336;21.200;2022-12-07T08:10:44;30.40;;;19.70;;
25509;SDS011;13413;52.336;21.200;2022-12-07T08:14:03;25.90;;;19.00;;
25509;SDS011;13413;52.336;21.200;2022-12-07T08:17:23;34.30;;;21.00;;
25509;SDS011;13413;52.336;21.200;2022-12-07T08:20:42;35.50;;;22.90;;
25509;SDS011;13413;52.336;21.200;2022-12-07T08:24:01;30.20;;;20.00;;
25509;SDS011;13413;52.336;21.200;2022-12-07T08:27:21;31.30;;;20.10;;
25509;SDS011;13413;52.336;21.200;2022-12-07T08:30:41;38.40;;;22.20;;
25509;SDS011;13413;52.336;21.200;2022-12-07T08:34:01;37.20;;;22.00;;
25509;SDS011;13413;52.336;21.200;2022-12-07T08:37:20;34.30;;;22.70;;
25509;SDS011;13413;52.336;21.200;2022-12-07T08:40:40;39.60;;;22.20;;
25509;SDS011;13413;52.336;21.200;2022-12-07T08:43:59;42.70;;;26.10;;
25509;SDS011;13413;52.336;21.200;2022-12-07T08:47:20;34.90;;;20.20;;
25509;SDS011;13413;52.336;21.200;2022-12-07T08:50:40;36.30;;;20.50;;
25509;SDS011;13413;52.336;21.200;2022-12-07T08:54:00;30.50;;;20.90;;
25509;SDS011;13413;52.336;21.200;2022-12-07T08:57:24;31.50;;;19.40;;
25509;SDS011;13413;52.336;21.200;2022-12-07T09:00:44;30.50;;;19.70;;
25509;SDS011;13413;52.336;21.200;2022-12-07T09:04:03;32.60;;;19.90;;
25509;SDS011;13413;52.336;21.200;2022-12-07T09:10:41;37.70;;;23.00;;
25509;SDS011;13413;52.336;21.200;2022-12-07T09:14:00;44.60;;;24.80;;
25509;SDS011;13413;52.336;21.200;2022-12-07T09:17:21;48.40;;;25.30;;
25509;SDS011;13413;52.336;21.200;2022-12-07T09:20:59;50.80;;;27.00;;
25509;SDS011;13413;52.336;21.200;2022-12-07T09:24:18;48.90;;;25.00;;
25509;SDS011;13413;52.336;21.200;2022-12-07T09:27:38;47.10;;;25.80;;
25509;SDS011;13413;52.336;21.200;2022-12-07T09:30:58;54.50;;;26.20;;
25509;SDS011;13413;52.336;21.200;2022-12-07T09:34:19;50.00;;;26.10;;
25509;SDS011;13413;52.336;21.200;2022-12-07T09:37:38;46.00;;;26.20;;
25509;SDS011;13413;52.336;21.200;2022-12-07T09:40:57;47.00;;;24.70;;
25509;SDS011;13413;52.336;21.200;2022-12-07T09:44:22;43.70;;;25.20;;
25509;SDS011;13413;52.336;21.200;2022-12-07T09:47:44;44.40;;;26.50;;
25509;SDS011;13413;52.336;21.200;2022-12-07T09:51:10;47.00;;;24.60;;
25509;SDS011;13413;52.336;21.200;2022-12-07T10:00:29;48.00;;;25.80;;
25509;SDS011;13413;52.336;21.200;2022-12-07T10:03:52;45.50;;;25.40;;
25509;SDS011;13413;52.336;21.200;2022-12-07T10:07:16;32.80;;;18.40;;
25509;SDS011;13413;52.336;21.200;2022-12-07T10:10:35;54.40;;;26.90;;
25509;SDS011;13413;52.336;21.200;2022-12-07T10:14:09;86.40;;;36.50;;
25509;SDS011;13413;52.336;21.200;2022-12-07T10:17:36;67.30;;;29.10;;
25509;SDS011;13413;52.336;21.200;2022-12-07T10:21:05;54.40;;;27.40;;
25509;SDS011;13413;52.336;21.200;2022-12-07T10:24:29;53.40;;;26.80;;
25509;SDS011;13413;52.336;21.200;2022-12-07T10:27:58;54.50;;;25.40;;
25509;SDS011;13413;52.336;21.200;2022-12-07T10:31:21;40.50;;;21.80;;
25509;SDS011;13413;52.336;21.200;2022-12-07T10:34:41;37.50;;;20.70;;
25509;SDS011;13413;52.336;21.200;2022-12-07T10:38:00;37.10;;;19.60;;
25509;SDS011;13413;52.336;21.200;2022-12-07T10:41:33;41.80;;;22.80;;
25509;SDS011;13413;52.336;21.200;2022-12-07T10:45:06;53.00;;;23.20;;
25509;SDS011;13413;52.336;21.200;2022-12-07T10:48:32;44.70;;;20.60;;
25509;SDS011;13413;52.336;21.200;2022-12-07T10:52:02;56.30;;;26.40;;
25509;SDS011;13413;52.336;21.200;2022-12-07T10:55:33;41.70;;;20.00;;
25509;SDS011;13413;52.336;21.200;2022-12-07T10:59:11;37.20;;;20.40;;
25509;SDS011;13413;52.336;21.200;2022-12-07T11:06:20;30.90;;;16.40;;
25509;SDS011;13413;52.336;21.200;2022-12-07T11:09:54;38.50;;;17.80;;
25509;SDS011;13413;52.336;21.200;2022-12-07T11:13:27;31.80;;;17.90;;
25509;SDS011;13413;52.336;21.200;2022-12-07T11:16:55;34.60;;;19.10;;
25509;SDS011;13413;52.336;21.200;2022-12-07T11:20:23;36.00;;;20.30;;
25509;SDS011;13413;52.336;21.200;2022-12-07T11:23:56;34.30;;;19.60;;
25509;SDS011;13413;52.336;21.200;2022-12-07T11:27:29;35.30;;;21.50;;
25509;SDS011;13413;52.336;21.200;2022-12-07T11:30:56;31.50;;;20.10;;
25509;SDS011;13413;52.336;21.200;2022-12-07T11:34:24;35.40;;;20.90;;
25509;SDS011;13413;52.336;21.200;2022-12-07T11:37:51;37.00;;;22.70;;
25509;SDS011;13413;52.336;21.200;2022-12-07T11:41:14;33.10;;;21.10;;
25509;SDS011;13413;52.336;21.200;2022-12-07T11:44:39;32.50;;;20.20;;
25509;SDS011;13413;52.336;21.200;2022-12-07T11:48:06;40.10;;;25.60;;
25509;SDS011;13413;52.336;21.200;2022-12-07T11:51:34;35.00;;;22.20;;
25509;SDS011;13413;52.336;21.200;2022-12-07T11:54:56;30.10;;;19.40;;
25509;SDS011;13413;52.336;21.200;2022-12-07T11:58:34;33.80;;;20.40;;
25509;SDS011;13413;52.336;21.200;2022-12-07T12:02:00;41.00;;;24.30;;
25509;SDS011;13413;52.336;21.200;2022-12-07T12:05:29;41.40;;;23.10;;
25509;SDS011;13413;52.336;21.200;2022-12-07T12:08:50;38.70;;;20.80;;
25509;SDS011;13413;52.336;21.200;2022-12-07T12:24:29;33.80;;;23.20;;
25509;SDS011;13413;52.336;21.200;2022-12-07T12:27:53;32.20;;;21.70;;
25509;SDS011;13413;52.336;21.200;2022-12-07T12:31:17;31.20;;;22.10;;
25509;SDS011;13413;52.336;21.200;2022-12-07T12:38:51;42.30;;;25.90;;
25509;SDS011;13413;52.336;21.200;2022-12-07T12:42:42;38.30;;;25.60;;
25509;SDS011;13413;52.336;21.200;2022-12-07T12:50:15;34.40;;;22.60;;
25509;SDS011;13413;52.336;21.200;2022-12-07T12:53:36;35.00;;;21.00;;
25509;SDS011;13413;52.336;21.200;2022-12-07T12:56:58;42.10;;;25.80;;
25509;SDS011;13413;52.336;21.200;2022-12-07T13:00:23;32.80;;;22.40;;
25509;SDS011;13413;52.336;21.200;2022-12-07T13:03:45;35.10;;;22.50;;
25509;SDS011;13413;52.336;21.200;2022-12-07T13:07:13;34.20;;;22.70;;
25509;SDS011;13413;52.336;21.200;2022-12-07T13:11:20;39.60;;;22.20;;
25509;SDS011;13413;52.336;21.200;2022-12-07T13:14:53;42.00;;;22.30;;
25509;SDS011;13413;52.336;21.200;2022-12-07T13:18:23;37.40;;;23.90;;
25509;SDS011;13413;52.336;21.200;2022-12-07T13:21:52;34.90;;;22.20;;
25509;SDS011;13413;52.336;21.200;2022-12-07T13:25:12;36.30;;;22.90;;
25509;SDS011;13413;52.336;21.200;2022-12-07T13:28:42;49.60;;;27.70;;
25509;SDS011;13413;52.336;21.200;2022-12-07T13:32:03;27.90;;;19.00;;
25509;SDS011;13413;52.336;21.200;2022-12-07T13:35:39;52.00;;;28.80;;
25509;SDS011;13413;52.336;21.200;2022-12-07T13:38:59;29.60;;;20.00;;
25509;SDS011;13413;52.336;21.200;2022-12-07T13:42:35;30.10;;;19.90;;
25509;SDS011;13413;52.336;21.200;2022-12-07T13:45:57;28.20;;;18.30;;
25509;SDS011;13413;52.336;21.200;2022-12-07T13:49:18;28.90;;;18.50;;
25509;SDS011;13413;52.336;21.200;2022-12-07T13:52:44;39.40;;;24.50;;
25509;SDS011;13413;52.336;21.200;2022-12-07T13:56:05;34.50;;;21.80;;
25509;SDS011;13413;52.336;21.200;2022-12-07T13:59:33;27.00;;;18.00;;
25509;SDS011;13413;52.336;21.200;2022-12-07T14:02:56;27.20;;;18.60;;
25509;SDS011;13413;52.336;21.200;2022-12-07T14:06:18;25.40;;;17.70;;
25509;SDS011;13413;52.336;21.200;2022-12-07T14:09:40;24.70;;;17.50;;
25509;SDS011;13413;52.336;21.200;2022-12-07T14:13:22;27.40;;;19.50;;
25509;SDS011;13413;52.336;21.200;2022-12-07T14:16:57;22.50;;;17.50;;
25509;SDS011;13413;52.336;21.200;2022-12-07T14:20:31;25.60;;;18.80;;
25509;SDS011;13413;52.336;21.200;2022-12-07T14:24:07;39.30;;;24.50;;
25509;SDS011;13413;52.336;21.200;2022-12-07T14:27:32;33.60;;;22.00;;
25509;SDS011;13413;52.336;21.200;2022-12-07T14:30:51;36.20;;;22.60;;
25509;SDS011;13413;52.336;21.200;2022-12-07T14:34:12;37.80;;;24.80;;
25509;SDS011;13413;52.336;21.200;2022-12-07T14:43:52;38.80;;;25.30;;
25509;SDS011;13413;52.336;21.200;2022-12-07T14:47:14;42.20;;;25.90;;
25509;SDS011;13413;52.336;21.200;2022-12-07T14:50:33;38.30;;;26.40;;
25509;SDS011;13413;52.336;21.200;2022-12-07T14:53:54;40.70;;;29.80;;
25509;SDS011;13413;52.336;21.200;2022-12-07T14:57:13;47.40;;;30.60;;
25509;SDS011;13413;52.336;21.200;2022-12-07T15:00:33;44.30;;;30.30;;
25509;SDS011;13413;52.336;21.200;2022-12-07T15:03:53;41.90;;;27.30;;
25509;SDS011;13413;52.336;21.200;2022-12-07T15:07:17;35.10;;;24.10;;
25509;SDS011;13413;52.336;21.200;2022-12-07T15:13:58;47.60;;;30.40;;
25509;SDS011;13413;52.336;21.200;2022-12-07T15:17:17;47.40;;;28.90;;
25509;SDS011;13413;52.336;21.200;2022-12-07T15:20:37;43.70;;;28.60;;
25509;SDS011;13413;52.336;21.200;2022-12-07T15:23:56;50.20;;;28.00;;
25509;SDS011;13413;52.336;21.200;2022-12-07T15:27:15;52.50;;;31.10;;
25509;SDS011;13413;52.336;21.200;2022-12-07T15:30:36;163.60;;;56.00;;
25509;SDS011;13413;52.336;21.200;2022-12-07T15:33:56;71.40;;;38.20;;
25509;SDS011;13413;52.336;21.200;2022-12-07T15:37:16;60.50;;;33.50;;
25509;SDS011;13413;52.336;21.200;2022-12-07T15:40:36;71.90;;;38.40;;
25509;SDS011;13413;52.336;21.200;2022-12-07T15:43:56;41.40;;;28.90;;
25509;SDS011;13413;52.336;21.200;2022-12-07T15:47:14;45.00;;;29.10;;
25509;SDS011;13413;52.336;21.200;2022-12-07T15:50:34;40.70;;;27.60;;
25509;SDS011;13413;52.336;21.200;2022-12-07T15:53:53;45.40;;;30.50;;
25509;SDS011;13413;52.336;21.200;2022-12-07T15:57:14;40.10;;;28.00;;
25509;SDS011;13413;52.336;21.200;2022-12-07T16:03:54;46.20;;;30.60;;
25509;SDS011;13413;52.336;21.200;2022-12-07T16:07:14;55.70;;;33.80;;
25509;SDS011;13413;52.336;21.200;2022-12-07T16:10:34;47.40;;;33.40;;
25509;SDS011;13413;52.336;21.200;2022-12-07T16:13:53;49.30;;;30.20;;
25509;SDS011;13413;52.336;21.200;2022-12-07T16:17:12;50.90;;;31.90;;
25509;SDS011;13413;52.336;21.200;2022-12-07T16:20:32;45.70;;;28.30;;
25509;SDS011;13413;52.336;21.200;2022-12-07T16:23:52;42.00;;;29.20;;
25509;SDS011;13413;52.336;21.200;2022-12-07T16:27:11;44.40;;;29.60;;
25509;SDS011;13413;52.336;21.200;2022-12-07T16:30:32;53.40;;;33.00;;
25509;SDS011;13413;52.336;21.200;2022-12-07T16:33:52;45.20;;;30.20;;
25509;SDS011;13413;52.336;21.200;2022-12-07T16:37:13;47.90;;;29.30;;
25509;SDS011;13413;52.336;21.200;2022-12-07T16:40:32;41.40;;;26.40;;
25509;SDS011;13413;52.336;21.200;2022-12-07T16:43:51;47.40;;;30.50;;
25509;SDS011;13413;52.336;21.200;2022-12-07T16:47:10;46.40;;;30.70;;
25509;SDS011;13413;52.336;21.200;2022-12-07T16:50:30;54.50;;;30.00;;
25509;SDS011;13413;52.336;21.200;2022-12-07T16:53:49;46.60;;;30.00;;
25509;SDS011;13413;52.336;21.200;2022-12-07T17:03:24;47.40;;;29.50;;
25509;SDS011;13413;52.336;21.200;2022-12-07T17:06:43;43.30;;;28.10;;
25509;SDS011;13413;52.336;21.200;2022-12-07T17:10:07;47.20;;;31.00;;
25509;SDS011;13413;52.336;21.200;2022-12-07T17:13:27;56.10;;;33.30;;
25509;SDS011;13413;52.336;21.200;2022-12-07T17:16:50;49.90;;;30.90;;
25509;SDS011;13413;52.336;21.200;2022-12-07T17:20:10;48.80;;;31.30;;
25509;SDS011;13413;52.336;21.200;2022-12-07T17:23:30;49.70;;;32.50;;
25509;SDS011;13413;52.336;21.200;2022-12-07T17:26:51;50.10;;;30.10;;
25509;SDS011;13413;52.336;21.200;2022-12-07T17:30:12;47.80;;;29.70;;
25509;SDS011;13413;52.336;21.200;2022-12-07T17:33:33;41.60;;;26.90;;
25509;SDS011;13413;52.336;21.200;2022-12-07T17:36:53;42.90;;;29.80;;
25509;SDS011;13413;52.336;21.200;2022-12-07T17:43:32;39.60;;;24.10;;
25509;SDS011;13413;52.336;21.200;2022-12-07T17:46:52;53.10;;;31.70;;
25509;SDS011;13413;52.336;21.200;2022-12-07T17:50:12;32.70;;;17.90;;
25509;SDS011;13413;52.336;21.200;2022-12-07T17:53:31;45.20;;;28.00;;
25509;SDS011;13413;52.336;21.200;2022-12-07T17:56:51;46.50;;;29.20;;
25509;SDS011;13413;52.336;21.200;2022-12-07T18:00:11;48.00;;;29.50;;
25509;SDS011;13413;52.336;21.200;2022-12-07T18:03:33;50.30;;;30.50;;
25509;SDS011;13413;52.336;21.200;2022-12-07T18:06:53;48.30;;;29.70;;
25509;SDS011;13413;52.336;21.200;2022-12-07T18:10:14;54.50;;;31.30;;
25509;SDS011;13413;52.336;21.200;2022-12-07T18:13:33;49.60;;;26.80;;
25509;SDS011;13413;52.336;21.200;2022-12-07T18:16:54;49.20;;;28.60;;
25509;SDS011;13413;52.336;21.200;2022-12-07T18:20:13;52.90;;;32.60;;
25509;SDS011;13413;52.336;21.200;2022-12-07T18:23:33;45.10;;;29.00;;
25509;SDS011;13413;52.336;21.200;2022-12-07T18:26:53;47.20;;;29.80;;
25509;SDS011;13413;52.336;21.200;2022-12-07T18:30:14;47.60;;;30.50;;
25509;SDS011;13413;52.336;21.200;2022-12-07T18:33:33;46.40;;;31.40;;
25509;SDS011;13413;52.336;21.200;2022-12-07T18:36:52;54.80;;;33.20;;
25509;SDS011;13413;52.336;21.200;2022-12-07T18:40:12;41.30;;;29.40;;
25509;SDS011;13413;52.336;21.200;2022-12-07T18:43:31;46.40;;;29.30;;
25509;SDS011;13413;52.336;21.200;2022-12-07T18:46:52;44.60;;;28.30;;
25509;SDS011;13413;52.336;21.200;2022-12-07T18:50:11;44.50;;;26.70;;
25509;SDS011;13413;52.336;21.200;2022-12-07T18:53:31;35.70;;;23.20;;
25509;SDS011;13413;52.336;21.200;2022-12-07T18:56:52;33.80;;;23.50;;
25509;SDS011;13413;52.336;21.200;2022-12-07T19:00:12;49.60;;;27.60;;
25509;SDS011;13413;52.336;21.200;2022-12-07T19:03:32;50.40;;;26.20;;
25509;SDS011;13413;52.336;21.200;2022-12-07T19:06:50;39.80;;;22.70;;
25509;SDS011;13413;52.336;21.200;2022-12-07T19:10:11;43.10;;;21.40;;
25509;SDS011;13413;52.336;21.200;2022-12-07T19:23:00;43.90;;;24.70;;
25509;SDS011;13413;52.336;21.200;2022-12-07T19:26:20;44.60;;;21.50;;
25509;SDS011;13413;52.336;21.200;2022-12-07T19:29:40;29.00;;;19.60;;
25509;SDS011;13413;52.336;21.200;2022-12-07T19:33:00;32.00;;;20.70;;
25509;SDS011;13413;52.336;21.200;2022-12-07T19:36:20;34.80;;;20.60;;
25509;SDS011;13413;52.336;21.200;2022-12-07T19:39:40;34.60;;;22.10;;
25509;SDS011;13413;52.336;21.200;2022-12-07T19:43:00;38.20;;;23.70;;
25509;SDS011;13413;52.336;21.200;2022-12-07T19:46:19;47.10;;;28.90;;
25509;SDS011;13413;52.336;21.200;2022-12-07T19:49:40;44.00;;;28.70;;
25509;SDS011;13413;52.336;21.200;2022-12-07T19:53:01;50.40;;;31.90;;
25509;SDS011;13413;52.336;21.200;2022-12-07T19:56:20;51.70;;;32.60;;
25509;SDS011;13413;52.336;21.200;2022-12-07T19:59:40;49.00;;;28.90;;
25509;SDS011;13413;52.336;21.200;2022-12-07T20:02:59;53.20;;;31.80;;
25509;SDS011;13413;52.336;21.200;2022-12-07T20:06:19;33.90;;;22.70;;
25509;SDS011;13413;52.336;21.200;2022-12-07T20:09:39;32.70;;;21.40;;
25509;SDS011;13413;52.336;21.200;2022-12-07T20:12:58;32.80;;;20.70;;
25509;SDS011;13413;52.336;21.200;2022-12-07T20:16:18;25.60;;;17.10;;
25509;SDS011;13413;52.336;21.200;2022-12-07T20:19:57;30.20;;;21.70;;
25509;SDS011;13413;52.336;21.200;2022-12-07T20:23:17;37.30;;;22.50;;
25509;SDS011;13413;52.336;21.200;2022-12-07T20:26:36;43.20;;;25.20;;
25509;SDS011;13413;52.336;21.200;2022-12-07T20:29:56;44.70;;;26.60;;
25509;SDS011;13413;52.336;21.200;2022-12-07T20:33:15;34.40;;;20.50;;
25509;SDS011;13413;52.336;21.200;2022-12-07T20:36:35;33.50;;;18.20;;
25509;SDS011;13413;52.336;21.200;2022-12-07T20:39:55;27.10;;;18.50;;
25509;SDS011;13413;52.336;21.200;2022-12-07T20:43:16;33.80;;;19.00;;
25509;SDS011;13413;52.336;21.200;2022-12-07T20:46:36;32.50;;;20.00;;
25509;SDS011;13413;52.336;21.200;2022-12-07T20:49:56;34.90;;;21.80;;
25509;SDS011;13413;52.336;21.200;2022-12-07T20:53:15;43.00;;;22.80;;
25509;SDS011;13413;52.336;21.200;2022-12-07T20:56:34;54.90;;;28.20;;
25509;SDS011;13413;52.336;21.200;2022-12-07T20:59:53;52.20;;;29.50;;
25509;SDS011;13413;52.336;21.200;2022-12-07T21:03:13;40.50;;;23.40;;
25509;SDS011;13413;52.336;21.200;2022-12-07T21:06:32;38.60;;;22.00;;
25509;SDS011;13413;52.336;21.200;2022-12-07T21:09:52;31.20;;;20.40;;
25509;SDS011;13413;52.336;21.200;2022-12-07T21:13:11;34.10;;;19.90;;
25509;SDS011;13413;52.336;21.200;2022-12-07T21:16:31;36.00;;;21.70;;
25509;SDS011;13413;52.336;21.200;2022-12-07T21:19:50;26.70;;;16.90;;
25509;SDS011;13413;52.336;21.200;2022-12-07T21:23:09;26.00;;;16.40;;
25509;SDS011;13413;52.336;21.200;2022-12-07T21:26:30;24.80;;;17.20;;
25509;SDS011;13413;52.336;21.200;2022-12-07T21:29:49;29.10;;;17.50;;
25509;SDS011;13413;52.336;21.200;2022-12-07T21:33:09;25.80;;;15.60;;
25509;SDS011;13413;52.336;21.200;2022-12-07T21:42:41;18.80;;;12.00;;
25509;SDS011;13413;52.336;21.200;2022-12-07T21:46:01;19.80;;;12.70;;
25509;SDS011;13413;52.336;21.200;2022-12-07T21:49:20;19.70;;;12.70;;
25509;SDS011;13413;52.336;21.200;2022-12-07T21:52:40;16.90;;;11.50;;
25509;SDS011;13413;52.336;21.200;2022-12-07T21:56:00;19.30;;;12.80;;
25509;SDS011;13413;52.336;21.200;2022-12-07T21:59:20;19.70;;;11.50;;
25509;SDS011;13413;52.336;21.200;2022-12-07T22:02:40;19.20;;;11.00;;
25509;SDS011;13413;52.336;21.200;2022-12-07T22:06:00;17.40;;;11.30;;
25509;SDS011;13413;52.336;21.200;2022-12-07T22:09:19;24.90;;;12.50;;